createdAt,value
2018-08-04T00:00:42.081Z,21.52
2018-08-04T00:01:42.122Z,21.53
2018-08-04T00:02:42.163Z,21.59
2018-08-04T00:03:42.210Z,21.59
2018-08-04T00:04:42.246Z,21.58
2018-08-04T00:05:42.289Z,21.62
2018-08-04T00:06:42.329Z,21.65
2018-08-04T00:07:42.373Z,21.72
2018-08-04T00:08:42.412Z,21.65
2018-08-04T00:09:42.454Z,21.72
2018-08-04T00:10:42.494Z,21.65
2018-08-04T00:11:42.539Z,21.72
2018-08-04T00:12:42.580Z,21.61
2018-08-04T00:13:42.620Z,21.65
2018-08-04T00:14:42.659Z,21.67
2018-08-04T00:15:42.700Z,21.61
2018-08-04T00:16:42.741Z,21.59
2018-08-04T00:17:42.790Z,21.53
2018-08-04T00:18:42.825Z,21.56
2018-08-04T00:19:42.865Z,21.53
2018-08-04T00:20:42.907Z,21.46
2018-08-04T00:21:42.949Z,21.42
2018-08-04T00:22:42.992Z,21.40
2018-08-04T00:23:43.030Z,21.37
2018-08-04T00:24:43.086Z,21.35
2018-08-04T00:25:43.113Z,21.29
2018-08-04T00:26:43.152Z,21.21
2018-08-04T00:27:43.204Z,21.22
2018-08-04T00:28:43.240Z,21.22
2018-08-04T00:29:43.279Z,21.19
2018-08-04T00:30:43.318Z,21.14
2018-08-04T00:31:43.369Z,21.16
2018-08-04T00:32:43.403Z,21.19
2018-08-04T00:33:43.444Z,21.13
2018-08-04T00:34:43.485Z,21.14
2018-08-04T00:35:43.525Z,21.19
2018-08-04T00:36:43.566Z,21.16
2018-08-04T00:37:43.609Z,21.19
2018-08-04T00:38:43.648Z,21.12
2018-08-04T00:39:43.692Z,21.14
2018-08-04T00:40:43.731Z,21.06
2018-08-04T00:41:43.777Z,20.99
2018-08-04T00:42:43.812Z,21.01
2018-08-04T00:43:43.863Z,21.03
2018-08-04T00:44:43.895Z,20.98
2018-08-04T00:45:43.937Z,20.95
2018-08-04T00:46:43.977Z,20.87
2018-08-04T00:47:44.017Z,20.94
2018-08-04T00:48:44.060Z,20.88
2018-08-04T00:49:44.100Z,20.84
2018-08-04T00:50:44.142Z,20.85
2018-08-04T00:51:44.182Z,20.84
2018-08-04T00:52:44.223Z,20.89
2018-08-04T00:53:44.267Z,20.92
2018-08-04T00:54:44.306Z,20.88
2018-08-04T00:55:44.348Z,20.88
2018-08-04T00:56:44.390Z,20.94
2018-08-04T00:57:44.431Z,20.88
2018-08-04T00:58:44.475Z,20.79
2018-08-04T00:59:44.513Z,20.88
2018-08-04T01:00:44.555Z,20.85
2018-08-04T01:01:44.595Z,20.77
2018-08-04T01:02:44.636Z,20.87
2018-08-04T01:03:44.678Z,20.87
2018-08-04T01:04:44.717Z,20.88
2018-08-04T01:05:44.758Z,20.87
2018-08-04T01:06:44.800Z,20.84
2018-08-04T01:07:44.842Z,20.82
2018-08-04T01:08:44.883Z,20.73
2018-08-04T01:09:44.924Z,20.74
2018-08-04T01:10:44.967Z,20.67
2018-08-04T01:11:45.004Z,20.80
2018-08-04T01:12:45.045Z,20.80
2018-08-04T01:13:45.101Z,20.77
2018-08-04T01:14:45.125Z,20.69
2018-08-04T01:15:45.178Z,20.66
2018-08-04T01:16:45.210Z,20.69
2018-08-04T01:17:45.249Z,20.72
2018-08-04T01:18:45.290Z,20.73
2018-08-04T01:19:45.332Z,20.61
2018-08-04T01:20:45.372Z,20.64
2018-08-04T01:21:45.412Z,20.67
2018-08-04T01:22:45.457Z,20.57
2018-08-04T01:23:45.496Z,20.64
2018-08-04T01:24:45.536Z,20.61
2018-08-04T01:25:45.576Z,20.58
2018-08-04T01:26:45.616Z,20.55
2018-08-04T01:27:45.658Z,20.57
2018-08-04T01:28:45.710Z,20.51
2018-08-04T01:29:45.741Z,20.59
2018-08-04T01:30:45.784Z,20.59
2018-08-04T01:31:45.821Z,20.51
2018-08-04T01:32:45.862Z,20.55
2018-08-04T01:33:45.905Z,20.52
2018-08-04T01:34:45.944Z,20.57
2018-08-04T01:35:45.986Z,20.52
2018-08-04T01:36:46.027Z,20.52
2018-08-04T01:37:46.068Z,20.43
2018-08-04T01:38:46.108Z,20.43
2018-08-04T01:39:46.150Z,20.42
2018-08-04T01:40:46.191Z,20.36
2018-08-04T01:41:46.237Z,20.39
2018-08-04T01:42:46.271Z,20.32
2018-08-04T01:43:46.313Z,20.21
2018-08-04T01:44:46.352Z,20.28
2018-08-04T01:45:46.394Z,20.28
2018-08-04T01:46:46.439Z,20.32
2018-08-04T01:47:46.474Z,20.23
2018-08-04T01:48:46.524Z,20.23
2018-08-04T01:49:46.558Z,20.36
2018-08-04T01:50:46.598Z,20.35
2018-08-04T01:51:46.637Z,20.23
2018-08-04T01:52:46.680Z,20.36
2018-08-04T01:53:46.770Z,20.26
2018-08-04T01:54:46.762Z,20.26
2018-08-04T01:55:46.802Z,20.28
2018-08-04T01:56:46.842Z,20.28
2018-08-04T01:57:46.885Z,20.29
2018-08-04T01:58:46.923Z,20.28
2018-08-04T01:59:46.966Z,20.28
2018-08-04T02:00:47.009Z,20.31
2018-08-04T02:01:47.046Z,20.26
2018-08-04T02:02:47.086Z,20.14
2018-08-04T02:03:47.128Z,20.13
2018-08-04T02:04:47.169Z,20.14
2018-08-04T02:05:47.211Z,20.13
2018-08-04T02:06:47.249Z,20.17
2018-08-04T02:07:47.291Z,20.10
2018-08-04T02:08:47.329Z,20.10
2018-08-04T02:09:47.370Z,20.17
2018-08-04T02:10:47.411Z,20.06
2018-08-04T02:11:47.461Z,20.11
2018-08-04T02:12:47.491Z,20.18
2018-08-04T02:13:47.541Z,20.16
2018-08-04T02:14:47.577Z,20.11
2018-08-04T02:15:47.613Z,20.10
2018-08-04T02:16:47.656Z,20.08
2018-08-04T02:17:47.697Z,20.03
2018-08-04T02:18:47.734Z,20.06
2018-08-04T02:19:47.776Z,20.02
2018-08-04T02:20:47.817Z,20.13
2018-08-04T02:21:47.860Z,20.14
2018-08-04T02:22:47.896Z,20.10
2018-08-04T02:23:47.936Z,20.08
2018-08-04T02:24:47.979Z,20.08
2018-08-04T02:25:48.020Z,20.11
2018-08-04T02:26:48.066Z,19.99
2018-08-04T02:27:48.098Z,20.01
2018-08-04T02:28:48.142Z,20.02
2018-08-04T02:29:48.184Z,19.94
2018-08-04T02:30:48.223Z,19.95
2018-08-04T02:31:48.264Z,19.87
2018-08-04T02:32:48.303Z,19.92
2018-08-04T02:33:48.345Z,19.88
2018-08-04T02:34:48.386Z,19.98
2018-08-04T02:35:48.425Z,19.94
2018-08-04T02:36:48.465Z,19.96
2018-08-04T02:37:48.506Z,19.94
2018-08-04T02:38:48.547Z,19.88
2018-08-04T02:39:48.637Z,19.84
2018-08-04T02:40:48.627Z,19.83
2018-08-04T02:41:48.668Z,19.77
2018-08-04T02:42:48.709Z,19.83
2018-08-04T02:43:48.747Z,19.81
2018-08-04T02:44:48.788Z,19.80
2018-08-04T02:45:48.829Z,19.84
2018-08-04T02:46:48.869Z,19.81
2018-08-04T02:47:48.909Z,19.83
2018-08-04T02:48:48.949Z,19.81
2018-08-04T02:49:48.993Z,19.84
2018-08-04T02:50:49.034Z,19.81
2018-08-04T02:51:49.071Z,19.74
2018-08-04T02:52:49.114Z,19.76
2018-08-04T02:53:49.159Z,19.76
2018-08-04T02:54:49.192Z,19.69
2018-08-04T02:55:49.233Z,19.66
2018-08-04T02:56:49.274Z,19.68
2018-08-04T02:57:49.314Z,19.74
2018-08-04T02:58:49.356Z,19.71
2018-08-04T02:59:49.395Z,19.58
2018-08-04T03:00:49.436Z,19.63
2018-08-04T03:01:49.479Z,19.61
2018-08-04T03:02:49.515Z,19.55
2018-08-04T03:03:49.571Z,19.61
2018-08-04T03:04:49.598Z,19.56
2018-08-04T03:05:49.672Z,19.47
2018-08-04T03:06:49.678Z,19.48
2018-08-04T03:07:49.718Z,19.47
2018-08-04T03:08:49.758Z,19.51
2018-08-04T03:09:49.807Z,19.39
2018-08-04T03:10:49.838Z,19.36
2018-08-04T03:11:49.878Z,19.41
2018-08-04T03:12:49.920Z,19.39
2018-08-04T03:13:49.957Z,19.46
2018-08-04T03:14:50.001Z,19.41
2018-08-04T03:15:50.039Z,19.31
2018-08-04T03:16:50.083Z,19.43
2018-08-04T03:17:50.119Z,19.29
2018-08-04T03:18:50.159Z,19.32
2018-08-04T03:19:50.200Z,19.43
2018-08-04T03:20:50.240Z,19.44
2018-08-04T03:21:50.281Z,19.33
2018-08-04T03:22:50.321Z,19.31
2018-08-04T03:23:50.361Z,19.31
2018-08-04T03:24:50.402Z,19.33
2018-08-04T03:25:50.441Z,19.25
2018-08-04T03:26:50.482Z,19.31
2018-08-04T03:27:50.523Z,19.32
2018-08-04T03:28:50.561Z,19.32
2018-08-04T03:29:50.601Z,19.23
2018-08-04T03:30:50.643Z,19.26
2018-08-04T03:31:50.681Z,19.33
2018-08-04T03:32:50.722Z,19.26
2018-08-04T03:33:50.815Z,19.32
2018-08-04T03:34:50.803Z,19.31
2018-08-04T03:35:50.846Z,19.33
2018-08-04T03:36:50.891Z,19.31
2018-08-04T03:37:50.924Z,19.32
2018-08-04T03:38:50.964Z,19.25
2018-08-04T03:39:51.012Z,19.25
2018-08-04T03:40:51.046Z,19.23
2018-08-04T03:41:51.089Z,19.22
2018-08-04T03:42:51.124Z,19.25
2018-08-04T03:43:51.165Z,19.26
2018-08-04T03:44:51.204Z,19.21
2018-08-04T03:45:51.244Z,19.28
2018-08-04T03:46:51.284Z,19.28
2018-08-04T03:47:51.332Z,19.26
2018-08-04T03:48:51.366Z,19.28
2018-08-04T03:49:51.407Z,19.22
2018-08-04T03:50:51.446Z,19.21
2018-08-04T03:51:51.486Z,19.19
2018-08-04T03:52:51.526Z,19.16
2018-08-04T03:53:51.566Z,19.13
2018-08-04T03:54:51.607Z,19.16
2018-08-04T03:55:51.646Z,19.13
2018-08-04T03:56:51.691Z,19.13
2018-08-04T03:57:51.728Z,19.13
2018-08-04T03:58:51.772Z,19.13
2018-08-04T03:59:51.806Z,19.21
2018-08-04T04:00:51.848Z,19.21
2018-08-04T04:01:51.886Z,19.14
2018-08-04T04:02:51.928Z,19.14
2018-08-04T04:03:51.966Z,19.10
2018-08-04T04:04:52.008Z,19.18
2018-08-04T04:05:52.058Z,19.18
2018-08-04T04:06:52.089Z,19.19
2018-08-04T04:07:52.130Z,19.14
2018-08-04T04:08:52.178Z,19.23
2018-08-04T04:09:52.210Z,19.33
2018-08-04T04:10:52.256Z,19.23
2018-08-04T04:11:52.289Z,19.26
2018-08-04T04:12:52.329Z,19.26
2018-08-04T04:13:52.376Z,19.29
2018-08-04T04:14:52.410Z,19.29
2018-08-04T04:15:52.451Z,19.32
2018-08-04T04:16:52.488Z,19.21
2018-08-04T04:17:52.530Z,19.33
2018-08-04T04:18:52.569Z,19.25
2018-08-04T04:19:52.611Z,19.26
2018-08-04T04:20:52.649Z,19.26
2018-08-04T04:21:52.692Z,19.26
2018-08-04T04:22:52.731Z,19.23
2018-08-04T04:23:52.770Z,19.25
2018-08-04T04:24:52.812Z,19.31
2018-08-04T04:25:52.853Z,19.33
2018-08-04T04:26:52.891Z,19.31
2018-08-04T04:27:52.932Z,19.44
2018-08-04T04:28:52.974Z,19.40
2018-08-04T04:29:53.024Z,19.50
2018-08-04T04:30:53.052Z,19.51
2018-08-04T04:31:53.095Z,19.54
2018-08-04T04:32:53.134Z,19.55
2018-08-04T04:33:53.184Z,19.65
2018-08-04T04:34:53.215Z,19.56
2018-08-04T04:35:53.257Z,19.65
2018-08-04T04:36:53.354Z,19.62
2018-08-04T04:37:53.340Z,19.66
2018-08-04T04:38:53.377Z,19.83
2018-08-04T04:39:53.415Z,19.74
2018-08-04T04:40:53.459Z,19.81
2018-08-04T04:41:53.499Z,19.83
2018-08-04T04:42:53.540Z,19.83
2018-08-04T04:43:53.577Z,19.81
2018-08-04T04:44:53.619Z,19.80
2018-08-04T04:45:53.659Z,19.81
2018-08-04T04:46:53.698Z,19.81
2018-08-04T04:47:53.738Z,19.83
2018-08-04T04:48:53.783Z,19.83
2018-08-04T04:49:53.824Z,19.87
2018-08-04T04:50:53.858Z,19.87
2018-08-04T04:51:53.900Z,19.94
2018-08-04T04:52:53.940Z,19.88
2018-08-04T04:53:53.982Z,19.96
2018-08-04T04:54:54.024Z,19.96
2018-08-04T04:55:54.063Z,19.95
2018-08-04T04:56:54.104Z,20.05
2018-08-04T04:57:54.143Z,20.05
2018-08-04T04:58:54.184Z,20.03
2018-08-04T04:59:54.225Z,20.10
2018-08-04T05:00:54.265Z,20.11
2018-08-04T05:01:54.310Z,20.10
2018-08-04T05:02:54.347Z,20.11
2018-08-04T05:03:54.387Z,20.21
2018-08-04T05:04:54.429Z,20.23
2018-08-04T05:05:54.469Z,20.26
2018-08-04T05:06:54.508Z,20.24
2018-08-04T05:07:54.547Z,20.28
2018-08-04T05:08:54.589Z,20.41
2018-08-04T05:09:54.637Z,20.41
2018-08-04T05:10:54.670Z,20.43
2018-08-04T05:11:54.711Z,20.50
2018-08-04T05:12:54.753Z,20.58
2018-08-04T05:13:54.793Z,20.51
2018-08-04T05:14:54.831Z,20.51
2018-08-04T05:15:54.871Z,20.66
2018-08-04T05:16:54.914Z,20.62
2018-08-04T05:17:55.006Z,20.79
2018-08-04T05:18:54.993Z,20.72
2018-08-04T05:19:55.034Z,20.73
2018-08-04T05:20:55.075Z,20.87
2018-08-04T05:21:55.121Z,20.94
2018-08-04T05:22:55.162Z,20.94
2018-08-04T05:23:55.197Z,20.95
2018-08-04T05:24:55.239Z,21.03
2018-08-04T05:25:55.281Z,21.04
2018-08-04T05:26:55.321Z,21.10
2018-08-04T05:27:55.363Z,21.12
2018-08-04T05:28:55.402Z,21.13
2018-08-04T05:29:55.445Z,21.25
2018-08-04T05:30:55.484Z,21.22
2018-08-04T05:31:55.608Z,21.32
2018-08-04T05:32:55.567Z,21.35
2018-08-04T05:33:55.607Z,21.35
2018-08-04T05:34:55.649Z,21.42
2018-08-04T05:35:55.690Z,21.42
2018-08-04T05:36:55.737Z,21.58
2018-08-04T05:37:55.773Z,21.58
2018-08-04T05:38:55.813Z,21.58
2018-08-04T05:39:55.855Z,21.54
2018-08-04T05:40:55.896Z,21.62
2018-08-04T05:41:55.937Z,21.67
2018-08-04T05:42:55.977Z,21.67
2018-08-04T05:43:56.022Z,21.74
2018-08-04T05:44:56.060Z,21.80
2018-08-04T05:45:56.102Z,21.91
2018-08-04T05:46:56.144Z,21.84
2018-08-04T05:47:56.184Z,21.92
2018-08-04T05:48:56.228Z,21.90
2018-08-04T05:49:56.316Z,21.98
2018-08-04T05:50:56.308Z,22.06
2018-08-04T05:51:56.349Z,22.20
2018-08-04T05:52:56.391Z,22.17
2018-08-04T05:53:56.434Z,22.21
2018-08-04T05:54:56.484Z,22.25
2018-08-04T05:55:56.515Z,22.33
2018-08-04T05:56:56.560Z,22.37
2018-08-04T05:57:56.663Z,22.37
2018-08-04T05:58:56.639Z,22.49
2018-08-04T05:59:56.682Z,22.52
2018-08-04T06:00:56.724Z,22.49
2018-08-04T06:01:56.765Z,22.54
2018-08-04T06:02:56.827Z,22.60
2018-08-04T06:03:56.845Z,22.68
2018-08-04T06:04:56.892Z,22.83
2018-08-04T06:05:56.940Z,22.75
2018-08-04T06:06:56.970Z,22.82
2018-08-04T06:07:57.014Z,22.88
2018-08-04T06:08:57.058Z,22.90
2018-08-04T06:09:57.097Z,22.94
2018-08-04T06:10:57.136Z,23.04
2018-08-04T06:11:57.183Z,23.13
2018-08-04T06:12:57.221Z,23.19
2018-08-04T06:13:57.263Z,23.28
2018-08-04T06:14:57.306Z,23.42
2018-08-04T06:15:57.349Z,23.33
2018-08-04T06:16:57.389Z,23.50
2018-08-04T06:17:57.430Z,23.51
2018-08-04T06:18:57.523Z,23.54
2018-08-04T06:19:57.515Z,23.60
2018-08-04T06:20:57.557Z,23.68
2018-08-04T06:21:57.628Z,23.78
2018-08-04T06:22:57.642Z,23.76
2018-08-04T06:23:57.681Z,23.88
2018-08-04T06:24:57.724Z,23.87
2018-08-04T06:25:57.768Z,23.93
2018-08-04T06:26:57.809Z,24.05
2018-08-04T06:27:57.851Z,24.12
2018-08-04T06:28:57.895Z,24.21
2018-08-04T06:29:57.936Z,24.21
2018-08-04T06:30:57.977Z,24.30
2018-08-04T06:31:58.020Z,24.27
2018-08-04T06:32:58.065Z,24.42
2018-08-04T06:33:58.109Z,24.42
2018-08-04T06:34:58.146Z,24.37
2018-08-04T06:35:58.189Z,24.45
2018-08-04T06:36:58.233Z,24.40
2018-08-04T06:37:58.278Z,24.53
2018-08-04T06:38:58.317Z,24.58
2018-08-04T06:39:58.359Z,24.71
2018-08-04T06:40:58.402Z,24.80
2018-08-04T06:41:58.443Z,24.83
2018-08-04T06:42:58.488Z,24.85
2018-08-04T06:43:58.528Z,24.87
2018-08-04T06:44:58.572Z,24.84
2018-08-04T06:45:58.619Z,24.93
2018-08-04T06:46:58.658Z,24.96
2018-08-04T06:47:58.701Z,25.03
2018-08-04T06:48:58.744Z,25.02
2018-08-04T06:49:58.785Z,25.06
2018-08-04T06:50:58.828Z,25.15
2018-08-04T06:51:58.870Z,25.21
2018-08-04T06:52:58.937Z,25.32
2018-08-04T06:53:58.959Z,25.25
2018-08-04T06:54:59.002Z,25.43
2018-08-04T06:55:59.044Z,25.35
2018-08-04T06:56:59.087Z,25.43
2018-08-04T06:57:59.131Z,25.54
2018-08-04T06:58:59.172Z,25.57
2018-08-04T06:59:59.214Z,25.46
2018-08-04T07:00:59.256Z,25.61
2018-08-04T07:01:59.300Z,25.64
2018-08-04T07:02:59.345Z,25.70
2018-08-04T07:03:59.387Z,25.73
2018-08-04T07:04:59.428Z,25.75
2018-08-04T07:05:59.473Z,25.88
2018-08-04T07:06:59.515Z,25.90
2018-08-04T07:07:59.559Z,25.91
2018-08-04T07:08:59.601Z,25.98
2018-08-04T07:09:59.642Z,26.06
2018-08-04T07:10:59.685Z,26.09
2018-08-04T07:11:59.733Z,26.10
2018-08-04T07:12:59.849Z,26.26
2018-08-04T07:13:59.816Z,26.26
2018-08-04T07:14:59.859Z,26.30
2018-08-04T07:15:59.905Z,26.32
2018-08-04T07:16:59.946Z,26.37
2018-08-04T07:17:59.997Z,26.33
2018-08-04T07:19:00.032Z,26.52
2018-08-04T07:20:00.075Z,26.50
2018-08-04T07:21:00.128Z,26.51
2018-08-04T07:22:01.273Z,26.60
2018-08-04T07:23:00.227Z,26.63
2018-08-04T07:24:00.251Z,26.72
2018-08-04T07:25:00.294Z,26.70
2018-08-04T07:26:00.337Z,26.75
2018-08-04T07:27:00.379Z,26.82
2018-08-04T07:28:00.425Z,26.91
2018-08-04T07:29:00.522Z,27.02
2018-08-04T07:30:00.519Z,27.04
2018-08-04T07:31:00.554Z,27.00
2018-08-04T07:32:00.601Z,27.14
2018-08-04T07:33:00.650Z,27.14
2018-08-04T07:34:00.685Z,27.19
2018-08-04T07:35:00.728Z,27.22
2018-08-04T07:36:00.776Z,27.25
2018-08-04T07:37:00.994Z,27.41
2018-08-04T07:38:00.859Z,27.46
2018-08-04T07:39:00.910Z,27.59
2018-08-04T07:40:00.946Z,27.67
2018-08-04T07:41:01.061Z,27.72
2018-08-04T07:42:01.140Z,27.69
2018-08-04T07:43:01.077Z,27.69
2018-08-04T07:44:01.122Z,27.85
2018-08-04T07:45:01.173Z,27.82
2018-08-04T07:46:01.213Z,28.03
2018-08-04T07:47:01.256Z,28.06
2018-08-04T07:48:01.302Z,28.17
2018-08-04T07:49:01.390Z,28.25
2018-08-04T07:50:01.399Z,28.37
2018-08-04T07:51:01.431Z,28.46
2018-08-04T07:52:01.474Z,28.48
2018-08-04T07:53:01.518Z,28.43
2018-08-04T07:54:01.581Z,28.48
2018-08-04T07:55:01.615Z,28.46
2018-08-04T07:56:01.651Z,28.39
2018-08-04T07:57:01.697Z,28.33
2018-08-04T07:58:01.744Z,28.34
2018-08-04T07:59:01.781Z,28.43
2018-08-04T08:00:01.836Z,28.43
2018-08-04T08:01:02.008Z,28.52
2018-08-04T08:02:01.919Z,28.49
2018-08-04T08:03:01.962Z,28.61
2018-08-04T08:04:02.006Z,28.62
2018-08-04T08:05:02.119Z,28.76
2018-08-04T08:06:02.103Z,28.71
2018-08-04T08:07:02.142Z,28.77
2018-08-04T08:08:02.182Z,28.77
2018-08-04T08:09:02.236Z,28.88
2018-08-04T08:10:02.272Z,28.86
2018-08-04T08:11:02.347Z,28.98
2018-08-04T08:12:02.364Z,29.09
2018-08-04T08:13:02.404Z,29.05
2018-08-04T08:14:02.449Z,29.05
2018-08-04T08:15:02.492Z,29.31
2018-08-04T08:16:02.537Z,29.28
2018-08-04T08:17:02.582Z,29.21
2018-08-04T08:18:02.627Z,29.23
2018-08-04T08:19:02.683Z,29.19
2018-08-04T08:20:02.719Z,29.31
2018-08-04T08:21:02.766Z,29.49
2018-08-04T08:22:02.823Z,29.51
2018-08-04T08:23:02.851Z,29.73
2018-08-04T08:24:02.896Z,29.76
2018-08-04T08:25:02.945Z,29.90
2018-08-04T08:26:02.986Z,29.94
2018-08-04T08:27:03.031Z,30.04
2018-08-04T08:28:03.078Z,30.13
2018-08-04T08:29:03.122Z,30.17
2018-08-04T08:30:03.172Z,30.23
2018-08-04T08:31:03.211Z,30.38
2018-08-04T08:32:03.267Z,30.43
2018-08-04T08:33:03.300Z,30.47
2018-08-04T08:34:03.346Z,30.65
2018-08-04T08:35:03.396Z,30.88
2018-08-04T08:36:03.435Z,30.88
2018-08-04T08:37:03.486Z,31.16
2018-08-04T08:38:03.536Z,31.14
2018-08-04T08:39:03.573Z,31.26
2018-08-04T08:40:03.619Z,31.43
2018-08-04T08:41:03.665Z,31.50
2018-08-04T08:42:03.711Z,31.70
2018-08-04T08:43:03.754Z,31.72
2018-08-04T08:44:03.800Z,31.76
2018-08-04T08:45:03.849Z,31.88
2018-08-04T08:46:03.894Z,32.07
2018-08-04T08:47:04.010Z,32.30
2018-08-04T08:48:03.987Z,32.47
2018-08-04T08:49:04.032Z,32.69
2018-08-04T08:50:04.079Z,32.89
2018-08-04T08:51:04.124Z,32.99
2018-08-04T08:52:04.170Z,33.04
2018-08-04T08:53:04.288Z,33.28
2018-08-04T08:54:04.467Z,33.28
2018-08-04T08:55:04.309Z,33.51
2018-08-04T08:56:04.355Z,33.54
2018-08-04T08:57:04.404Z,33.65
2018-08-04T08:58:04.450Z,33.75
2018-08-04T08:59:04.512Z,33.73
2018-08-04T09:00:04.544Z,33.75
2018-08-04T09:01:04.592Z,33.93
2018-08-04T09:02:04.641Z,33.87
2018-08-04T09:03:04.696Z,34.05
2018-08-04T09:04:04.741Z,34.16
2018-08-04T09:05:04.783Z,34.15
2018-08-04T09:06:04.927Z,34.21
2018-08-04T09:07:04.876Z,34.27
2018-08-04T09:08:04.931Z,34.19
2018-08-04T09:09:04.974Z,34.17
2018-08-04T09:10:05.023Z,34.00
2018-08-04T09:11:05.066Z,34.13
2018-08-04T09:12:05.114Z,34.02
2018-08-04T09:13:05.506Z,33.71
2018-08-04T09:14:05.210Z,33.63
2018-08-04T09:15:05.260Z,33.61
2018-08-04T09:16:05.307Z,33.66
2018-08-04T09:17:05.359Z,33.68
2018-08-04T09:18:05.402Z,33.91
2018-08-04T09:19:05.456Z,33.97
2018-08-04T09:20:05.498Z,34.13
2018-08-04T09:21:05.546Z,34.27
2018-08-04T09:22:05.596Z,34.42
2018-08-04T09:23:05.680Z,34.53
2018-08-04T09:24:05.691Z,34.50
2018-08-04T09:25:05.741Z,34.27
2018-08-04T09:26:05.789Z,34.37
2018-08-04T09:27:05.835Z,34.49
2018-08-04T09:28:05.891Z,34.28
2018-08-04T09:29:05.939Z,34.25
2018-08-04T09:30:06.384Z,34.25
2018-08-04T09:31:06.040Z,34.16
2018-08-04T09:32:06.085Z,34.17
2018-08-04T09:33:06.126Z,34.15
2018-08-04T09:34:06.176Z,34.12
2018-08-04T09:35:06.224Z,33.76
2018-08-04T09:36:06.274Z,33.82
2018-08-04T09:37:06.322Z,33.73
2018-08-04T09:38:06.406Z,33.76
2018-08-04T09:39:06.444Z,33.59
2018-08-04T09:40:06.467Z,33.56
2018-08-04T09:41:06.518Z,33.59
2018-08-04T09:42:06.563Z,33.51
2018-08-04T09:43:06.614Z,33.57
2018-08-04T09:44:06.659Z,33.60
2018-08-04T09:45:06.712Z,33.82
2018-08-04T09:46:06.990Z,33.84
2018-08-04T09:47:06.809Z,33.86
2018-08-04T09:48:06.856Z,33.93
2018-08-04T09:49:06.903Z,33.84
2018-08-04T09:50:06.955Z,33.95
2018-08-04T09:51:07.003Z,33.97
2018-08-04T09:52:07.047Z,33.95
2018-08-04T09:53:07.097Z,33.86
2018-08-04T09:54:07.144Z,33.98
2018-08-04T09:55:07.191Z,33.93
2018-08-04T09:56:07.241Z,33.98
2018-08-04T09:57:07.306Z,34.21
2018-08-04T09:58:07.349Z,34.02
2018-08-04T09:59:07.399Z,34.05
2018-08-04T10:00:07.434Z,33.98
2018-08-04T10:01:07.485Z,33.82
2018-08-04T10:02:07.534Z,33.94
2018-08-04T10:03:07.587Z,33.93
2018-08-04T10:04:07.632Z,33.73
2018-08-04T10:05:07.680Z,33.82
2018-08-04T10:06:07.725Z,33.81
2018-08-04T10:07:07.776Z,33.78
2018-08-04T10:08:07.826Z,33.84
2018-08-04T10:09:07.887Z,33.81
2018-08-04T10:10:07.919Z,33.82
2018-08-04T10:11:07.989Z,33.94
2018-08-04T10:12:08.018Z,33.87
2018-08-04T10:13:08.073Z,33.63
2018-08-04T10:14:08.118Z,33.87
2018-08-04T10:15:08.159Z,33.75
2018-08-04T10:16:08.213Z,33.76
2018-08-04T10:17:08.262Z,33.57
2018-08-04T10:18:08.310Z,33.60
2018-08-04T10:19:08.354Z,33.63
2018-08-04T10:20:08.408Z,33.79
2018-08-04T10:21:08.453Z,33.73
2018-08-04T10:22:08.504Z,33.81
2018-08-04T10:23:08.556Z,33.81
2018-08-04T10:24:08.604Z,33.75
2018-08-04T10:25:08.645Z,33.79
2018-08-04T10:26:08.769Z,33.76
2018-08-04T10:27:08.740Z,33.84
2018-08-04T10:28:08.790Z,33.81
2018-08-04T10:29:08.838Z,33.66
2018-08-04T10:30:08.900Z,33.63
2018-08-04T10:31:08.950Z,33.59
2018-08-04T10:32:09.107Z,33.88
2018-08-04T10:33:09.030Z,34.00
2018-08-04T10:34:09.080Z,34.13
2018-08-04T10:35:09.139Z,34.28
2018-08-04T10:36:09.173Z,34.42
2018-08-04T10:37:09.224Z,34.47
2018-08-04T10:38:09.271Z,34.42
2018-08-04T10:39:09.322Z,34.32
2018-08-04T10:40:09.366Z,34.31
2018-08-04T10:41:09.412Z,34.21
2018-08-04T10:42:09.461Z,34.34
2018-08-04T10:43:09.510Z,34.37
2018-08-04T10:44:09.559Z,34.39
2018-08-04T10:45:09.608Z,34.35
2018-08-04T10:46:09.664Z,34.61
2018-08-04T10:47:09.710Z,34.73
2018-08-04T10:48:09.752Z,34.80
2018-08-04T10:49:09.802Z,34.92
2018-08-04T10:50:09.848Z,35.04
2018-08-04T10:51:09.899Z,35.03
2018-08-04T10:52:10.284Z,35.10
2018-08-04T10:53:09.993Z,34.89
2018-08-04T10:54:10.043Z,34.89
2018-08-04T10:55:10.101Z,34.88
2018-08-04T10:56:10.145Z,34.96
2018-08-04T10:57:10.194Z,34.92
2018-08-04T10:58:10.239Z,34.69
2018-08-04T10:59:10.282Z,34.49
2018-08-04T11:00:10.340Z,34.34
2018-08-04T11:01:10.382Z,34.39
2018-08-04T11:02:10.437Z,34.53
2018-08-04T11:03:10.478Z,34.56
2018-08-04T11:04:10.529Z,34.64
2018-08-04T11:05:10.579Z,34.70
2018-08-04T11:06:10.624Z,34.49
2018-08-04T11:07:10.676Z,34.17
2018-08-04T11:08:10.723Z,34.12
2018-08-04T11:09:10.776Z,33.86
2018-08-04T11:10:10.827Z,33.72
2018-08-04T11:11:10.867Z,33.76
2018-08-04T11:12:10.925Z,33.71
2018-08-04T11:13:10.964Z,33.65
2018-08-04T11:14:11.012Z,33.61
2018-08-04T11:15:11.062Z,33.54
2018-08-04T11:16:11.109Z,33.42
2018-08-04T11:17:11.168Z,33.42
2018-08-04T11:18:11.292Z,33.41
2018-08-04T11:19:11.263Z,33.35
2018-08-04T11:20:11.306Z,33.34
2018-08-04T11:21:11.356Z,33.44
2018-08-04T11:22:11.403Z,33.31
2018-08-04T11:23:11.451Z,33.37
2018-08-04T11:24:11.617Z,33.31
2018-08-04T11:25:11.579Z,33.29
2018-08-04T11:26:11.591Z,33.34
2018-08-04T11:27:11.642Z,33.28
2018-08-04T11:28:11.685Z,33.22
2018-08-04T11:29:11.732Z,33.12
2018-08-04T11:30:11.784Z,33.00
2018-08-04T11:31:11.829Z,33.01
2018-08-04T11:32:11.882Z,33.06
2018-08-04T11:33:11.927Z,33.01
2018-08-04T11:34:11.975Z,32.99
2018-08-04T11:35:12.021Z,32.89
2018-08-04T11:36:12.071Z,32.93
2018-08-04T11:37:12.115Z,33.00
2018-08-04T11:38:12.162Z,33.00
2018-08-04T11:39:12.212Z,32.94
2018-08-04T11:40:12.256Z,33.15
2018-08-04T11:41:12.306Z,33.22
2018-08-04T11:42:12.354Z,33.19
2018-08-04T11:43:12.406Z,33.09
2018-08-04T11:44:12.448Z,33.06
2018-08-04T11:45:12.495Z,33.11
2018-08-04T11:46:12.540Z,33.18
2018-08-04T11:47:12.589Z,33.41
2018-08-04T11:48:12.639Z,33.54
2018-08-04T11:49:12.682Z,33.51
2018-08-04T11:50:12.730Z,33.72
2018-08-04T11:51:12.779Z,33.69
2018-08-04T11:52:12.828Z,33.78
2018-08-04T11:53:12.874Z,33.75
2018-08-04T11:54:12.941Z,33.97
2018-08-04T11:55:12.967Z,34.00
2018-08-04T11:56:13.013Z,33.97
2018-08-04T11:57:13.062Z,34.08
2018-08-04T11:58:13.108Z,34.12
2018-08-04T11:59:13.158Z,33.97
2018-08-04T12:00:13.209Z,33.91
2018-08-04T12:01:13.285Z,33.87
2018-08-04T12:02:13.299Z,33.94
2018-08-04T12:03:13.351Z,34.00
2018-08-04T12:04:13.422Z,34.16
2018-08-04T12:05:13.442Z,34.37
2018-08-04T12:06:13.489Z,34.39
2018-08-04T12:07:13.539Z,34.53
2018-08-04T12:08:13.585Z,34.53
2018-08-04T12:09:13.633Z,34.37
2018-08-04T12:10:13.683Z,34.32
2018-08-04T12:11:13.736Z,34.39
2018-08-04T12:12:13.786Z,34.34
2018-08-04T12:13:13.822Z,34.19
2018-08-04T12:14:13.871Z,34.24
2018-08-04T12:15:13.925Z,34.25
2018-08-04T12:16:13.976Z,34.10
2018-08-04T12:17:14.017Z,34.22
2018-08-04T12:18:14.148Z,34.37
2018-08-04T12:19:14.119Z,34.50
2018-08-04T12:20:14.157Z,34.53
2018-08-04T12:21:14.206Z,34.62
2018-08-04T12:22:14.253Z,34.84
2018-08-04T12:23:14.301Z,34.85
2018-08-04T12:24:14.362Z,34.99
2018-08-04T12:25:14.397Z,35.14
2018-08-04T12:26:14.443Z,35.09
2018-08-04T12:27:14.493Z,34.97
2018-08-04T12:28:14.543Z,35.10
2018-08-04T12:29:14.590Z,35.25
2018-08-04T12:30:14.635Z,35.25
2018-08-04T12:31:14.701Z,35.31
2018-08-04T12:32:14.734Z,35.52
2018-08-04T12:33:14.783Z,35.63
2018-08-04T12:34:14.830Z,35.80
2018-08-04T12:35:14.878Z,35.99
2018-08-04T12:36:14.928Z,36.22
2018-08-04T12:37:14.975Z,36.49
2018-08-04T12:38:15.028Z,36.69
2018-08-04T12:39:15.074Z,36.73
2018-08-04T12:40:15.121Z,36.87
2018-08-04T12:41:15.172Z,36.81
2018-08-04T12:42:15.240Z,36.39
2018-08-04T12:43:15.271Z,36.34
2018-08-04T12:44:15.317Z,36.15
2018-08-04T12:45:15.367Z,36.29
2018-08-04T12:46:15.424Z,36.34
2018-08-04T12:47:15.465Z,36.20
2018-08-04T12:48:15.516Z,36.31
2018-08-04T12:49:15.583Z,36.49
2018-08-04T12:50:15.615Z,36.41
2018-08-04T12:51:15.663Z,36.54
2018-08-04T12:52:15.717Z,36.65
2018-08-04T12:53:15.762Z,36.93